createdAt,value
2018-01-21T00:01:17.733Z,58.80
2018-01-21T00:03:48.156Z,58.80
2018-01-21T00:06:18.955Z,58.30
2018-01-21T00:08:49.936Z,60.20
2018-01-21T00:11:21.578Z,59.50
2018-01-21T00:13:52.903Z,60.30
2018-01-21T00:16:24.329Z,60.10
2018-01-21T00:18:55.799Z,61.00
2018-01-21T00:21:27.394Z,61.00
2018-01-21T00:23:58.743Z,61.10
2018-01-21T00:26:29.719Z,60.80
2018-01-21T00:29:01.703Z,61.30
2018-01-21T00:31:34.149Z,61.90
2018-01-21T00:34:05.490Z,61.60
2018-01-21T00:36:37.057Z,62.00
2018-01-21T00:39:08.355Z,61.20
2018-01-21T00:41:39.192Z,60.90
2018-01-21T00:44:10.339Z,60.90
2018-01-21T00:46:42.596Z,60.70
2018-01-21T00:49:15.102Z,60.10
2018-01-21T00:51:46.454Z,59.40
2018-01-21T00:54:18.984Z,60.90
2018-01-21T00:56:49.976Z,60.80
2018-01-21T00:59:20.907Z,60.60
2018-01-21T01:01:53.162Z,60.00
2018-01-21T01:04:23.993Z,60.20
2018-01-21T01:06:54.843Z,60.80
2018-01-21T01:09:25.930Z,60.60
2018-01-21T01:11:56.476Z,60.80
2018-01-21T01:14:27.320Z,61.20
2018-01-21T01:16:58.483Z,61.50
2018-01-21T01:19:29.420Z,60.80
2018-01-21T01:22:00.491Z,60.40
2018-01-21T01:24:32.224Z,61.60
2018-01-21T01:27:03.500Z,61.60
2018-01-21T01:29:34.937Z,61.10
2018-01-21T01:32:06.990Z,61.70
2018-01-21T01:34:38.720Z,61.50
2018-01-21T01:37:11.252Z,62.70
2018-01-21T01:39:42.797Z,62.80
2018-01-21T01:42:14.302Z,63.40
2018-01-21T01:44:45.106Z,63.30
2018-01-21T01:47:16.223Z,63.90
2018-01-21T01:49:47.264Z,63.30
2018-01-21T01:52:19.628Z,63.30
2018-01-21T01:54:51.738Z,64.10
2018-01-21T01:57:22.390Z,63.80
2018-01-21T01:59:53.504Z,63.30
2018-01-21T02:02:24.620Z,63.50
2018-01-21T02:04:56.668Z,64.40
2018-01-21T02:07:27.712Z,64.40
2018-01-21T02:09:58.651Z,65.10
2018-01-21T02:12:29.932Z,67.30
2018-01-21T02:15:01.198Z,67.10
2018-01-21T02:17:31.973Z,68.00
2018-01-21T02:20:03.693Z,69.90
2018-01-21T02:22:34.818Z,69.40
2018-01-21T02:25:06.048Z,70.00
2018-01-21T02:27:37.273Z,70.00
2018-01-21T02:30:09.798Z,69.40
2018-01-21T02:32:41.659Z,69.50
2018-01-21T02:35:12.783Z,68.40
2018-01-21T02:37:43.328Z,68.40
2018-01-21T02:40:14.146Z,68.10
2018-01-21T02:42:45.154Z,67.30
2018-01-21T02:45:16.028Z,67.80
2018-01-21T02:47:47.937Z,66.50
2018-01-21T02:50:19.814Z,66.70
2018-01-21T02:52:50.545Z,66.50
2018-01-21T02:55:21.344Z,66.20
2018-01-21T02:57:52.211Z,66.70
2018-01-21T03:00:22.816Z,66.80
2018-01-21T03:02:54.604Z,66.50
2018-01-21T03:05:26.003Z,67.20
2018-01-21T03:07:56.762Z,67.70
2018-01-21T03:10:28.651Z,67.30
2018-01-21T03:12:59.876Z,67.30
2018-01-21T03:15:31.720Z,67.90
2018-01-21T03:18:02.909Z,67.70
2018-01-21T03:20:34.601Z,67.20
2018-01-21T03:23:06.487Z,67.20
2018-01-21T03:25:37.606Z,66.60
2018-01-21T03:28:08.264Z,67.40
2018-01-21T03:30:42.830Z,67.00
2018-01-21T03:33:14.130Z,67.00
2018-01-21T03:35:45.897Z,66.60
2018-01-21T03:38:16.781Z,66.60
2018-01-21T03:40:47.754Z,67.30
2018-01-21T03:43:18.836Z,66.90
2018-01-21T03:45:50.053Z,67.30
2018-01-21T03:48:21.570Z,67.00
2018-01-21T03:50:52.276Z,67.10
2018-01-21T03:53:23.563Z,67.10
2018-01-21T03:55:55.280Z,67.50
2018-01-21T03:58:26.305Z,66.70
2018-01-21T04:00:57.204Z,66.80
2018-01-21T04:03:27.734Z,66.90
2018-01-21T04:05:58.053Z,66.40
2018-01-21T04:08:35.487Z,67.20
2018-01-21T04:11:06.813Z,65.80
2018-01-21T04:13:38.565Z,65.70
2018-01-21T04:16:10.923Z,66.60
2018-01-21T04:18:42.460Z,66.60
2018-01-21T04:21:13.568Z,66.00
2018-01-21T04:23:44.212Z,65.50
2018-01-21T04:26:14.620Z,64.20
2018-01-21T04:28:44.886Z,64.00
2018-01-21T04:31:17.409Z,63.80
2018-01-21T04:33:47.595Z,64.10
2018-01-21T04:36:19.894Z,64.10
2018-01-21T04:38:50.712Z,64.10
2018-01-21T04:41:22.369Z,63.90
2018-01-21T04:43:54.421Z,63.20
2018-01-21T04:46:25.929Z,63.20
2018-01-21T04:48:57.707Z,63.20
2018-01-21T04:51:28.762Z,63.20
2018-01-21T04:53:59.012Z,63.50
2018-01-21T04:56:30.426Z,63.20
2018-01-21T04:59:01.712Z,63.20
2018-01-21T05:01:34.293Z,61.30
2018-01-21T05:04:05.414Z,61.10
2018-01-21T05:06:37.360Z,60.10
2018-01-21T05:09:09.395Z,60.20
2018-01-21T05:11:40.719Z,59.90
2018-01-21T05:14:10.947Z,59.70
2018-01-21T05:16:44.337Z,57.70
2018-01-21T05:19:14.697Z,57.90
2018-01-21T05:21:45.568Z,57.10
2018-01-21T05:24:16.612Z,57.10
2018-01-21T05:26:48.344Z,56.20
2018-01-21T05:29:19.598Z,56.20
2018-01-21T05:31:50.949Z,56.50
2018-01-21T05:34:21.497Z,57.30
2018-01-21T05:36:52.513Z,55.60
2018-01-21T05:39:23.700Z,54.80
2018-01-21T05:41:53.997Z,54.90
2018-01-21T05:44:25.186Z,55.00
2018-01-21T05:46:58.224Z,53.80
2018-01-21T05:49:28.959Z,52.90
2018-01-21T05:52:00.667Z,53.20
2018-01-21T05:54:32.082Z,52.70
2018-01-21T05:57:03.635Z,52.10
2018-01-21T05:59:34.290Z,53.00
2018-01-21T06:02:05.409Z,52.70
2018-01-21T06:04:36.397Z,52.10
2018-01-21T06:07:07.529Z,52.10
2018-01-21T06:09:38.720Z,51.40
2018-01-21T06:12:10.199Z,52.30
2018-01-21T06:14:41.914Z,52.40
2018-01-21T06:17:13.361Z,52.50
2018-01-21T06:19:45.104Z,52.70
2018-01-21T06:22:16.249Z,52.60
2018-01-21T06:24:48.755Z,52.50
2018-01-21T06:27:21.236Z,52.70
2018-01-21T06:29:52.203Z,52.80
2018-01-21T06:32:23.338Z,52.60
2018-01-21T06:34:54.997Z,53.00
2018-01-21T06:37:26.975Z,52.80
2018-01-21T06:39:58.073Z,52.40
2018-01-21T06:42:29.684Z,52.40
2018-01-21T06:45:01.408Z,53.60
2018-01-21T06:47:32.155Z,53.20
2018-01-21T06:50:03.679Z,53.00
2018-01-21T06:52:34.691Z,53.10
2018-01-21T06:55:05.367Z,51.50
2018-01-21T06:57:36.100Z,51.80
2018-01-21T07:00:07.262Z,53.30
2018-01-21T07:02:38.002Z,54.50
2018-01-21T07:05:08.910Z,53.40
2018-01-21T07:07:40.453Z,50.80
2018-01-21T07:10:11.485Z,51.80
2018-01-21T07:12:42.447Z,51.80
2018-01-21T07:15:14.094Z,53.00
2018-01-21T07:17:47.212Z,53.10
2018-01-21T07:20:18.341Z,51.10
2018-01-21T07:22:51.451Z,51.20
2018-01-21T07:25:22.829Z,51.10
2018-01-21T07:27:53.641Z,50.50
2018-01-21T07:30:25.386Z,49.30
2018-01-21T07:32:57.908Z,49.50
2018-01-21T07:35:29.264Z,49.80
2018-01-21T07:38:00.865Z,48.30
2018-01-21T07:40:32.437Z,46.70
2018-01-21T07:43:03.612Z,46.70
2018-01-21T07:45:34.624Z,47.30
2018-01-21T07:48:07.919Z,47.40
2018-01-21T07:50:38.694Z,46.60
2018-01-21T07:53:10.378Z,49.10
2018-01-21T07:55:41.192Z,44.60
2018-01-21T07:58:12.164Z,45.00
2018-01-21T08:00:43.413Z,46.10
2018-01-21T08:03:14.262Z,44.00
2018-01-21T08:05:45.361Z,46.20
2018-01-21T08:08:16.231Z,45.30
2018-01-21T08:10:48.204Z,44.50
2018-01-21T08:13:19.214Z,42.80
2018-01-21T08:15:50.315Z,45.70
2018-01-21T08:18:21.188Z,44.30
2018-01-21T08:20:52.294Z,43.70
2018-01-21T08:23:23.293Z,43.50
2018-01-21T08:25:54.410Z,44.30
2018-01-21T08:28:25.658Z,45.40
2018-01-21T08:30:57.960Z,43.00
2018-01-21T08:33:31.067Z,42.70
2018-01-21T08:36:07.926Z,43.90
2018-01-21T08:38:45.021Z,42.70
2018-01-21T08:41:22.196Z,42.80
2018-01-21T08:43:52.788Z,43.70
2018-01-21T08:46:23.508Z,42.80
2018-01-21T08:48:56.299Z,42.80
2018-01-21T08:51:28.987Z,43.00
2018-01-21T08:54:00.086Z,42.30
2018-01-21T08:56:31.160Z,42.80
2018-01-21T08:59:02.728Z,42.60
2018-01-21T09:01:33.557Z,42.60
2018-01-21T09:04:05.768Z,42.10
2018-01-21T09:06:36.744Z,42.00
2018-01-21T09:09:08.253Z,43.30
2018-01-21T09:11:39.609Z,43.20
2018-01-21T09:14:10.657Z,45.40
2018-01-21T09:16:41.645Z,45.10
2018-01-21T09:19:13.186Z,45.30
2018-01-21T09:21:44.798Z,45.40
2018-01-21T09:24:16.368Z,45.20
2018-01-21T09:26:47.257Z,45.30
2018-01-21T09:29:18.274Z,45.70
2018-01-21T09:31:49.285Z,46.70
2018-01-21T09:34:22.116Z,46.80
2018-01-21T09:36:53.880Z,46.10
2018-01-21T09:39:25.831Z,46.50
2018-01-21T09:41:57.489Z,45.70
2018-01-21T09:44:28.719Z,44.10
2018-01-21T09:47:01.204Z,45.00
2018-01-21T09:49:32.845Z,45.10
2018-01-21T09:52:04.004Z,44.30
2018-01-21T09:54:35.139Z,44.40
2018-01-21T09:57:07.110Z,45.40
2018-01-21T09:59:38.232Z,45.30
2018-01-21T10:02:10.128Z,46.50
2018-01-21T10:04:41.342Z,46.60
2018-01-21T10:07:11.781Z,43.80
2018-01-21T10:09:42.968Z,43.80
2018-01-21T10:12:13.873Z,43.60
2018-01-21T10:14:44.955Z,43.10
2018-01-21T10:17:16.056Z,44.60
2018-01-21T10:19:47.059Z,43.90
2018-01-21T10:22:18.991Z,43.00
2018-01-21T10:24:50.182Z,42.80
2018-01-21T10:27:22.094Z,42.40
2018-01-21T10:29:53.292Z,42.40
2018-01-21T10:32:25.476Z,42.40
2018-01-21T10:34:58.932Z,42.40
2018-01-21T10:37:30.178Z,41.90
2018-01-21T10:40:02.399Z,41.90
2018-01-21T10:42:33.244Z,41.90
2018-01-21T10:45:04.228Z,42.60
2018-01-21T10:47:36.057Z,43.00
2018-01-21T10:50:06.856Z,43.00
2018-01-21T10:52:38.071Z,42.40
2018-01-21T10:55:09.599Z,41.70
2018-01-21T10:57:42.150Z,41.50
2018-01-21T11:00:12.855Z,43.10
2018-01-21T11:02:43.291Z,41.70
2018-01-21T11:05:14.506Z,42.50
2018-01-21T11:07:45.596Z,42.90
2018-01-21T11:10:16.581Z,41.90
2018-01-21T11:12:48.497Z,43.00
2018-01-21T11:15:19.218Z,43.10
2018-01-21T11:17:50.188Z,42.30
2018-01-21T11:20:20.930Z,41.60
2018-01-21T11:22:53.158Z,40.40
2018-01-21T11:25:23.978Z,40.60
2018-01-21T11:27:55.055Z,40.30
2018-01-21T11:30:26.049Z,40.10
2018-01-21T11:32:57.075Z,40.70
2018-01-21T11:35:28.034Z,41.40
2018-01-21T11:37:59.378Z,40.30
2018-01-21T11:40:30.466Z,40.30
2018-01-21T11:43:01.873Z,39.40
2018-01-21T11:45:33.308Z,39.50
2018-01-21T11:48:05.335Z,39.30
2018-01-21T11:50:37.465Z,40.40
2018-01-21T11:53:08.379Z,40.20
2018-01-21T11:55:39.539Z,39.60
2018-01-21T11:58:11.042Z,39.20
2018-01-21T12:00:42.686Z,38.70
2018-01-21T12:03:13.909Z,37.60
2018-01-21T12:05:44.404Z,38.80
2018-01-21T12:08:15.274Z,38.60
2018-01-21T12:10:46.793Z,37.20
2018-01-21T12:13:17.983Z,36.90
2018-01-21T12:15:48.978Z,36.80
2018-01-21T12:18:19.996Z,36.50
2018-01-21T12:20:51.241Z,36.00
2018-01-21T12:23:22.114Z,35.60
2018-01-21T12:25:54.824Z,35.80
2018-01-21T12:28:26.361Z,35.50
2018-01-21T12:30:57.194Z,35.10
2018-01-21T12:33:27.699Z,35.50
2018-01-21T12:35:58.081Z,35.80
2018-01-21T12:38:29.971Z,35.90
2018-01-21T12:41:00.568Z,35.80
2018-01-21T12:43:31.790Z,37.10
2018-01-21T12:46:03.502Z,37.70
2018-01-21T12:48:34.705Z,39.70
2018-01-21T12:51:05.562Z,40.00
2018-01-21T12:53:36.224Z,39.70
2018-01-21T12:56:07.212Z,40.20
2018-01-21T12:58:38.683Z,40.80
2018-01-21T13:01:09.488Z,40.70
2018-01-21T13:03:40.454Z,40.80
2018-01-21T13:06:12.421Z,39.90
2018-01-21T13:08:43.497Z,41.30
2018-01-21T13:11:15.067Z,40.80
2018-01-21T13:13:46.064Z,40.70
2018-01-21T13:16:18.006Z,41.90
2018-01-21T13:18:50.748Z,41.70
2018-01-21T13:21:23.957Z,42.00
2018-01-21T13:23:54.882Z,41.70
2018-01-21T13:26:25.632Z,41.70
2018-01-21T13:28:57.779Z,42.70
2018-01-21T13:31:29.354Z,41.60
2018-01-21T13:34:01.083Z,44.00
2018-01-21T13:36:32.456Z,43.70
2018-01-21T13:39:04.330Z,39.90
2018-01-21T13:41:36.381Z,39.80
2018-01-21T13:44:08.144Z,43.40
2018-01-21T13:46:39.883Z,42.20
2018-01-21T13:49:11.069Z,43.10
2018-01-21T13:51:41.970Z,43.60
2018-01-21T13:54:13.325Z,44.20
2018-01-21T13:56:44.118Z,45.50
2018-01-21T13:59:16.323Z,43.80
2018-01-21T14:01:48.309Z,48.30
2018-01-21T14:04:19.437Z,48.30
2018-01-21T14:06:50.183Z,47.70
2018-01-21T14:09:21.721Z,52.90
2018-01-21T14:11:52.413Z,54.20
2018-01-21T14:14:23.443Z,51.80
2018-01-21T14:16:55.078Z,55.10
2018-01-21T14:19:25.930Z,60.70
2018-01-21T14:21:59.511Z,59.70
2018-01-21T14:24:30.555Z,63.20
2018-01-21T14:27:01.673Z,64.60
2018-01-21T14:29:31.950Z,64.10
2018-01-21T14:32:02.996Z,65.40
2018-01-21T14:34:34.574Z,66.90
2018-01-21T14:37:06.422Z,66.80
2018-01-21T14:39:37.542Z,66.60
2018-01-21T14:42:09.147Z,65.90
2018-01-21T14:44:40.547Z,66.10
2018-01-21T14:47:11.416Z,65.20
2018-01-21T14:49:43.981Z,66.90
2018-01-21T14:52:15.021Z,67.60
2018-01-21T14:54:46.507Z,66.00
2018-01-21T14:57:17.805Z,66.70
2018-01-21T14:59:49.962Z,64.40
2018-01-21T15:02:21.012Z,64.40
2018-01-21T15:04:52.087Z,64.60
2018-01-21T15:07:23.786Z,65.90
2018-01-21T15:09:54.109Z,67.30
2018-01-21T15:12:25.333Z,66.80
2018-01-21T15:14:56.010Z,66.10
2018-01-21T15:17:26.417Z,65.90
2018-01-21T15:19:57.285Z,67.70
2018-01-21T15:22:31.239Z,66.50
2018-01-21T15:25:03.072Z,66.40
2018-01-21T15:27:33.584Z,66.30
2018-01-21T15:30:05.581Z,64.90
2018-01-21T15:32:36.352Z,64.70
2018-01-21T15:35:07.465Z,65.30
2018-01-21T15:37:39.358Z,65.50
2018-01-21T15:40:10.972Z,62.60
2018-01-21T15:42:42.303Z,64.70
2018-01-21T15:45:14.562Z,64.50
2018-01-21T15:47:46.224Z,64.10
2018-01-21T15:50:17.149Z,64.10
2018-01-21T15:52:49.081Z,65.00
2018-01-21T15:55:20.047Z,65.10
2018-01-21T15:57:53.360Z,65.60
2018-01-21T16:00:24.216Z,65.60
2018-01-21T16:02:55.200Z,63.00
2018-01-21T16:05:26.818Z,64.90
2018-01-21T16:07:58.088Z,64.80
2018-01-21T16:10:29.746Z,66.50
2018-01-21T16:13:00.672Z,66.60
2018-01-21T16:15:31.721Z,68.20
2018-01-21T16:18:03.732Z,66.30
2018-01-21T16:20:34.697Z,66.50
2018-01-21T16:23:06.066Z,66.70
2018-01-21T16:25:36.983Z,67.50
2018-01-21T16:28:08.141Z,67.20
2018-01-21T16:30:39.203Z,66.40
2018-01-21T16:33:11.404Z,65.80
2018-01-21T16:35:42.710Z,65.60
2018-01-21T16:38:25.210Z,65.50
2018-01-21T16:40:56.320Z,64.50
2018-01-21T16:43:28.335Z,65.50
2018-01-21T16:45:59.067Z,66.70
2018-01-21T16:48:30.353Z,67.70
2018-01-21T16:51:01.738Z,66.70
2018-01-21T16:53:34.047Z,66.90
2018-01-21T16:56:05.245Z,68.00
2018-01-21T16:58:36.033Z,66.50
2018-01-21T17:01:08.718Z,68.80
2018-01-21T17:03:40.584Z,69.20
2018-01-21T17:06:12.401Z,69.90
2018-01-21T17:08:43.459Z,70.30
2018-01-21T17:11:15.229Z,70.90
2018-01-21T17:13:46.649Z,70.80
2018-01-21T17:16:17.768Z,70.50
2018-01-21T17:18:49.605Z,69.80
2018-01-21T17:21:21.031Z,69.80
2018-01-21T17:23:55.369Z,66.00
2018-01-21T17:26:27.084Z,65.80
2018-01-21T17:28:58.052Z,66.30
2018-01-21T17:31:28.520Z,67.50
2018-01-21T17:34:00.099Z,66.90
2018-01-21T17:36:30.990Z,65.50
2018-01-21T17:39:02.054Z,65.80
2018-01-21T17:41:33.438Z,66.80
2018-01-21T17:44:04.623Z,66.80
2018-01-21T17:46:35.925Z,68.30
2018-01-21T17:49:07.492Z,67.30
2018-01-21T17:51:38.147Z,67.70
2018-01-21T17:54:09.356Z,69.00
2018-01-21T17:56:40.972Z,69.20
2018-01-21T17:59:12.624Z,69.20
2018-01-21T18:01:43.903Z,68.90
2018-01-21T18:04:15.173Z,69.10
2018-01-21T18:06:47.397Z,68.80
2018-01-21T18:09:19.563Z,66.60
2018-01-21T18:11:50.529Z,66.80
2018-01-21T18:14:21.681Z,65.90
2018-01-21T18:16:52.712Z,65.70
2018-01-21T18:19:24.122Z,65.50
2018-01-21T18:21:56.068Z,67.10
2018-01-21T18:24:27.630Z,66.90
2018-01-21T18:26:59.202Z,68.20
2018-01-21T18:29:31.688Z,66.60
2018-01-21T18:32:04.248Z,66.50
2018-01-21T18:34:35.261Z,68.00
2018-01-21T18:37:06.838Z,65.90
2018-01-21T18:39:38.843Z,65.40
2018-01-21T18:42:10.270Z,65.10
2018-01-21T18:44:41.599Z,67.80
2018-01-21T18:47:12.648Z,67.70
2018-01-21T18:49:44.702Z,67.00
2018-01-21T18:52:16.166Z,66.90
2018-01-21T18:54:48.873Z,68.60
2018-01-21T18:57:20.365Z,68.40
2018-01-21T18:59:51.326Z,70.20
2018-01-21T19:02:22.372Z,71.60
2018-01-21T19:04:53.733Z,72.80
2018-01-21T19:07:24.656Z,72.50
2018-01-21T19:09:55.754Z,71.20
2018-01-21T19:12:26.672Z,71.30
2018-01-21T19:14:57.992Z,72.40
2018-01-21T19:17:30.088Z,73.40
2018-01-21T19:20:03.368Z,73.60
2018-01-21T19:22:34.273Z,73.70
2018-01-21T19:25:08.180Z,72.70
2018-01-21T19:27:40.955Z,74.40
2018-01-21T19:30:12.995Z,73.20
2018-01-21T19:32:45.073Z,73.40
2018-01-21T19:35:16.854Z,71.10
2018-01-21T19:37:48.675Z,74.00
2018-01-21T19:40:35.885Z,74.00
2018-01-21T19:43:08.848Z,72.40
2018-01-21T19:45:40.393Z,74.20
2018-01-21T19:48:11.920Z,77.00
2018-01-21T19:50:45.875Z,75.20
2018-01-21T19:53:16.863Z,73.40
2018-01-21T19:55:49.449Z,76.20
2018-01-21T19:58:20.299Z,75.80
2018-01-21T20:00:52.947Z,75.40
2018-01-21T20:03:24.867Z,76.30
2018-01-21T20:05:56.982Z,75.90
2018-01-21T20:08:27.247Z,78.20
2018-01-21T20:10:57.858Z,78.40
2018-01-21T20:13:28.421Z,77.30
2018-01-21T20:15:59.472Z,78.40
2018-01-21T20:18:30.726Z,79.30
2018-01-21T20:21:02.613Z,79.90
2018-01-21T20:23:33.652Z,79.80
2018-01-21T20:26:05.053Z,78.90
2018-01-21T20:28:37.245Z,79.50
2018-01-21T20:31:08.650Z,79.60
2018-01-21T20:33:40.123Z,80.50
2018-01-21T20:36:11.087Z,80.90
2018-01-21T20:38:42.588Z,78.60
2018-01-21T20:41:13.928Z,77.70
2018-01-21T20:43:44.983Z,79.20
2018-01-21T20:46:16.480Z,81.80
2018-01-21T20:48:48.033Z,80.30
2018-01-21T20:51:24.767Z,81.70
2018-01-21T20:54:00.794Z,81.60
2018-01-21T20:56:32.812Z,81.70
2018-01-21T20:59:05.204Z,80.30
2018-01-21T21:01:36.224Z,80.40
2018-01-21T21:04:07.187Z,80.50
2018-01-21T21:06:39.766Z,79.60
2018-01-21T21:09:11.144Z,79.40
2018-01-21T21:11:42.622Z,77.90
2018-01-21T21:14:13.146Z,79.60
2018-01-21T21:16:43.704Z,79.10
2018-01-21T21:19:14.499Z,78.00
2018-01-21T21:21:45.470Z,78.80
2018-01-21T21:24:17.529Z,79.10
2018-01-21T21:26:48.482Z,78.80
2018-01-21T21:29:19.676Z,80.60
2018-01-21T21:31:51.608Z,78.90
2018-01-21T21:34:22.860Z,78.40
2018-01-21T21:36:53.126Z,78.00
2018-01-21T21:39:23.423Z,77.50
2018-01-21T21:41:54.679Z,76.30
2018-01-21T21:44:25.854Z,76.00
2018-01-21T21:47:00.224Z,74.30
2018-01-21T21:49:31.536Z,74.20
2018-01-21T21:52:03.545Z,72.30
2018-01-21T21:54:34.277Z,72.30
2018-01-21T21:57:04.697Z,72.00
2018-01-21T21:59:36.192Z,73.40
2018-01-21T22:02:06.820Z,72.70
2018-01-21T22:04:37.212Z,72.90
2018-01-21T22:07:08.005Z,68.50
2018-01-21T22:09:38.494Z,71.40
2018-01-21T22:12:10.035Z,72.30
2018-01-21T22:14:41.172Z,72.50
2018-01-21T22:17:12.600Z,73.00
2018-01-21T22:19:44.014Z,72.00
2018-01-21T22:22:15.954Z,72.40
2018-01-21T22:24:47.242Z,72.30
2018-01-21T22:27:21.031Z,71.60
2018-01-21T22:29:52.133Z,73.30
2018-01-21T22:32:23.039Z,72.80
2018-01-21T22:34:54.399Z,70.80
2018-01-21T22:37:25.261Z,71.00
2018-01-21T22:39:56.217Z,70.40
2018-01-21T22:42:27.241Z,71.40
2018-01-21T22:44:58.812Z,70.10
2018-01-21T22:47:30.404Z,70.60
2018-01-21T22:50:01.624Z,71.60
2018-01-21T22:52:32.874Z,71.60
2018-01-21T22:55:04.960Z,72.00
2018-01-21T22:57:36.072Z,71.90
2018-01-21T23:00:07.542Z,72.10
2018-01-21T23:02:38.707Z,72.80
2018-01-21T23:05:09.482Z,72.80
2018-01-21T23:07:40.814Z,73.10
2018-01-21T23:10:12.966Z,72.50
2018-01-21T23:12:43.804Z,72.70
2018-01-21T23:15:15.079Z,73.80
2018-01-21T23:17:46.331Z,72.50
2018-01-21T23:20:24.022Z,74.80
2018-01-21T23:22:57.038Z,74.80
2018-01-21T23:25:28.946Z,76.30
2018-01-21T23:28:01.872Z,76.10
2018-01-21T23:30:32.277Z,76.30
2018-01-21T23:33:03.059Z,75.10
2018-01-21T23:35:34.632Z,75.40
2018-01-21T23:38:05.714Z,74.90
2018-01-21T23:40:38.330Z,74.80
2018-01-21T23:43:08.918Z,74.70
2018-01-21T23:45:41.466Z,73.20
2018-01-21T23:48:12.733Z,73.20
2018-01-21T23:50:44.259Z,72.90
2018-01-21T23:53:15.455Z,72.90
2018-01-21T23:55:46.299Z,73.30
2018-01-21T23:58:17.762Z,74.50
